Aérodrome :
LOGIN :

S'inscrire | Disclaimer

   EN    FR    IT 

 










Légende :    VFR   VFR Marginal   IFR   IFR Intensif   IFR Très Intensif
Visi : 
Plafond : 
>= 8 km
>= 3000ft
5 à 8 km
1000 à 3000 ft
1500m à 5 km
500 à 1000 ft
800 à 1500m
200 à 500 ft
< 800m
< 200 ft
Symboles :   Orages  Brouillard  Fortes neiges  Fortes précipitations  Vent > 20 kt
SIGMETs :   Divers  Orages  Givrage  Turbulence  Onde Orograph.  Cendres Volcan.






- Altitude de l'aérodrome : 396 ft


LFOZ - Orléans St Denis

DERNIER METAR :
  • 131030Z AUTO 27019KT 9999 FEW012 SCT024 BKN030 07/03 Q0990

METARs EXPIRÉS :
  • 131000Z AUTO 26017G27KT 9999 SCT025 07/03 Q0989
  • 130930Z AUTO 26020KT 230V290 9999 BKN027 BKN036 OVC052 07/03 Q0988
  • 130900Z AUTO 26013G25KT 9999 BKN029 OVC036 06/03 Q0988
  • 130830Z AUTO 26017KT 9999 FEW033 BKN049 06/02 Q0987
  • 130800Z AUTO 26015KT 9999 FEW028 SCT039 BKN054 06/02 Q0986

TAF N/A



MET'MAP, la Météo Aéronautique d'un coup d'oeil ! - Copyright ORBIFLY Décembre 2007 - Disclaimer

ORBIFLY MET'MAP TEAM :

Programmation & Développement : Alexandra Zaïnal
Sur une idée originale de : Baudouin d'Aumeries
Assistance à la programmation : Marc-Olivier Méhu
Soutien technique & logistique : Manuel Goepfert

Contact : metmap@orbifly.com




SOURCES & CREDITS :

   NOAA